createdAt,value
2018-07-25T00:00:18.080Z,22.90
2018-07-25T00:02:46.237Z,22.90
2018-07-25T00:05:14.331Z,22.90
2018-07-25T00:07:42.445Z,22.90
2018-07-25T00:10:11.000Z,22.80
2018-07-25T00:12:39.103Z,22.80
2018-07-25T00:15:07.291Z,22.80
2018-07-25T00:17:35.411Z,22.80
2018-07-25T00:20:03.617Z,22.80
2018-07-25T00:22:31.751Z,22.80
2018-07-25T00:25:00.748Z,22.80
2018-07-25T00:29:57.535Z,22.70
2018-07-25T00:32:25.859Z,22.70
2018-07-25T00:34:54.018Z,22.70
2018-07-25T00:37:22.259Z,22.70
2018-07-25T00:39:50.404Z,22.70
2018-07-25T00:42:18.550Z,22.70
2018-07-25T00:44:46.695Z,22.60
2018-07-25T00:49:42.747Z,22.60
2018-07-25T00:52:10.904Z,22.50
2018-07-25T00:54:39.182Z,22.50
2018-07-25T00:57:07.370Z,22.50
2018-07-25T00:59:35.628Z,22.40
2018-07-25T01:02:04.014Z,22.40
2018-07-25T01:04:32.220Z,22.40
2018-07-25T01:09:28.420Z,22.40
2018-07-25T01:11:56.516Z,22.40
2018-07-25T01:14:24.634Z,22.40
2018-07-25T01:16:52.806Z,22.30
2018-07-25T01:19:20.939Z,22.30
2018-07-25T01:21:49.094Z,22.30
2018-07-25T01:24:17.228Z,22.30
2018-07-25T01:26:45.394Z,22.20
2018-07-25T01:29:14.150Z,22.20
2018-07-25T01:31:44.278Z,22.20
2018-07-25T01:34:12.443Z,22.10
2018-07-25T01:36:40.520Z,22.10
2018-07-25T01:39:09.730Z,22.10
2018-07-25T01:41:37.886Z,22.10
2018-07-25T01:44:06.506Z,22.00
2018-07-25T01:46:34.716Z,22.00
2018-07-25T01:49:03.278Z,22.00
2018-07-25T01:51:31.540Z,22.00
2018-07-25T01:53:59.632Z,21.90
2018-07-25T01:56:28.248Z,21.90
2018-07-25T01:58:56.379Z,21.90
2018-07-25T02:01:24.705Z,21.90
2018-07-25T02:03:52.818Z,21.90
2018-07-25T02:08:52.438Z,21.80
2018-07-25T02:11:20.612Z,21.80
2018-07-25T02:18:44.928Z,21.90
2018-07-25T02:21:13.857Z,21.90
2018-07-25T02:23:42.085Z,21.90
2018-07-25T02:26:10.328Z,22.00
2018-07-25T02:28:38.584Z,22.00
2018-07-25T02:31:06.847Z,22.00
2018-07-25T02:33:40.430Z,22.00
2018-07-25T02:36:08.537Z,22.00
2018-07-25T02:38:36.637Z,22.10
2018-07-25T02:41:04.859Z,22.10
2018-07-25T02:43:33.359Z,22.10
2018-07-25T02:46:02.189Z,22.10
2018-07-25T02:48:30.771Z,22.10
2018-07-25T02:50:58.947Z,22.10
2018-07-25T02:53:27.083Z,22.10
2018-07-25T02:55:55.758Z,22.00
2018-07-25T02:58:24.121Z,22.00
2018-07-25T03:00:53.147Z,22.00
2018-07-25T03:03:21.613Z,22.00
2018-07-25T03:05:49.724Z,22.00
2018-07-25T03:08:18.312Z,21.90
2018-07-25T03:10:52.459Z,21.90
2018-07-25T03:13:20.837Z,21.90
2018-07-25T03:15:58.997Z,21.90
2018-07-25T03:18:27.475Z,22.00
2018-07-25T03:20:55.629Z,22.00
2018-07-25T03:23:23.816Z,22.10
2018-07-25T03:25:52.077Z,22.10
2018-07-25T03:28:20.848Z,22.20
2018-07-25T03:30:49.519Z,22.20
2018-07-25T03:33:17.642Z,22.20
2018-07-25T03:35:45.862Z,22.20
2018-07-25T03:38:14.394Z,22.20
2018-07-25T03:40:42.542Z,22.20
2018-07-25T03:43:11.202Z,22.20
2018-07-25T03:45:39.359Z,22.20
2018-07-25T03:48:08.243Z,22.10
2018-07-25T03:50:36.545Z,22.20
2018-07-25T03:53:05.231Z,22.20
2018-07-25T03:55:33.482Z,22.20
2018-07-25T04:00:29.876Z,22.30
2018-07-25T04:02:58.257Z,22.30
2018-07-25T04:05:26.337Z,22.30
2018-07-25T04:07:54.699Z,22.40
2018-07-25T04:10:22.900Z,22.60
2018-07-25T04:12:51.238Z,22.70
2018-07-25T04:15:19.328Z,22.80
2018-07-25T04:17:51.764Z,22.90
2018-07-25T04:20:20.494Z,23.10
2018-07-25T04:22:48.697Z,23.20
2018-07-25T04:25:17.738Z,23.30
2018-07-25T04:27:46.698Z,23.40
2018-07-25T04:30:16.915Z,23.50
2018-07-25T04:32:45.479Z,23.50
2018-07-25T04:35:14.781Z,23.40
2018-07-25T04:37:43.915Z,23.40
2018-07-25T04:40:12.029Z,23.40
2018-07-25T04:42:40.206Z,23.40
2018-07-25T04:45:09.845Z,23.60
2018-07-25T04:47:38.009Z,23.70
2018-07-25T04:52:34.397Z,23.90
2018-07-25T04:55:03.921Z,24.00
2018-07-25T04:57:32.161Z,24.10
2018-07-25T05:00:00.339Z,24.20
2018-07-25T05:02:28.694Z,24.50
2018-07-25T05:04:57.047Z,24.60
2018-07-25T05:07:25.216Z,24.60
2018-07-25T05:09:53.429Z,24.60
2018-07-25T05:12:21.712Z,24.60
2018-07-25T05:14:49.871Z,24.50
2018-07-25T05:17:18.682Z,24.40
2018-07-25T05:19:47.755Z,24.30
2018-07-25T05:22:16.844Z,24.30
2018-07-25T05:24:45.000Z,24.40
2018-07-25T05:27:13.240Z,24.90
2018-07-25T05:29:41.641Z,25.60
2018-07-25T05:32:09.786Z,26.60
2018-07-25T05:34:39.767Z,27.50
2018-07-25T05:37:07.914Z,27.70
2018-07-25T05:39:36.091Z,27.80
2018-07-25T05:42:04.262Z,27.80
2018-07-25T05:44:32.459Z,27.90
2018-07-25T05:47:00.576Z,27.90
2018-07-25T05:49:28.769Z,28.00
2018-07-25T05:51:56.927Z,28.50
2018-07-25T05:54:25.005Z,29.00
2018-07-25T05:56:54.692Z,29.50
2018-07-25T05:59:22.830Z,29.80
2018-07-25T06:01:50.950Z,29.70
2018-07-25T06:04:19.091Z,29.80
2018-07-25T06:06:47.227Z,30.00
2018-07-25T06:11:43.527Z,30.50
2018-07-25T06:14:11.804Z,30.70
2018-07-25T06:16:40.019Z,31.00
2018-07-25T06:21:36.735Z,31.30
2018-07-25T06:24:04.875Z,31.50
2018-07-25T06:26:32.997Z,31.60
2018-07-25T06:29:01.168Z,31.60
2018-07-25T06:31:29.543Z,31.50
2018-07-25T06:33:57.873Z,31.50
2018-07-25T06:36:25.993Z,31.60
2018-07-25T06:38:54.275Z,31.60
2018-07-25T06:41:22.637Z,31.60
2018-07-25T06:43:50.822Z,31.50
2018-07-25T06:48:47.175Z,31.40
2018-07-25T06:51:15.482Z,31.30
2018-07-25T06:53:43.627Z,31.30
2018-07-25T06:56:11.803Z,31.50
2018-07-25T06:58:39.979Z,31.50
2018-07-25T07:03:36.021Z,31.70
2018-07-25T07:08:32.517Z,31.80
2018-07-25T07:11:00.683Z,31.60
2018-07-25T07:15:56.989Z,31.50
2018-07-25T07:18:25.207Z,31.60
2018-07-25T07:20:53.625Z,31.60
2018-07-25T07:25:49.970Z,31.50
2018-07-25T07:30:46.284Z,31.30
2018-07-25T07:33:14.459Z,31.40
2018-07-25T07:35:43.548Z,31.40
2018-07-25T07:38:11.655Z,31.50
2018-07-25T07:40:39.765Z,31.50
2018-07-25T07:43:07.857Z,31.50
2018-07-25T07:45:35.959Z,31.40
2018-07-25T07:48:04.118Z,31.40
2018-07-25T07:50:32.375Z,31.40
2018-07-25T07:53:00.580Z,31.40
2018-07-25T07:55:28.942Z,31.30
2018-07-25T07:57:57.046Z,31.30
2018-07-25T08:00:25.194Z,31.30
2018-07-25T08:02:53.559Z,31.20
2018-07-25T08:05:21.728Z,31.10
2018-07-25T08:07:49.897Z,31.00
2018-07-25T08:10:18.283Z,31.00
2018-07-25T08:12:46.688Z,30.90
2018-07-25T08:15:14.653Z,30.80
2018-07-25T08:25:06.935Z,30.60
2018-07-25T08:27:35.089Z,30.60
2018-07-25T08:30:04.394Z,30.60
2018-07-25T08:35:00.554Z,30.30
2018-07-25T08:37:30.266Z,30.10
2018-07-25T08:39:58.666Z,30.00
2018-07-25T08:42:26.886Z,29.80
2018-07-25T08:44:55.456Z,29.70
2018-07-25T08:49:51.734Z,29.60
2018-07-25T08:52:21.635Z,29.60
2018-07-25T08:57:18.460Z,29.60
2018-07-25T08:59:46.646Z,29.50
2018-07-25T09:02:14.979Z,29.50
2018-07-25T09:04:43.148Z,29.60
2018-07-25T09:07:11.316Z,29.60
2018-07-25T09:09:39.638Z,29.60
2018-07-25T09:12:07.912Z,29.70
2018-07-25T09:14:37.682Z,29.70
2018-07-25T09:17:05.826Z,29.70
2018-07-25T09:19:34.273Z,29.70
2018-07-25T09:22:02.701Z,29.70
2018-07-25T09:24:30.936Z,29.60
2018-07-25T09:26:59.818Z,29.50
2018-07-25T09:29:28.034Z,29.40
2018-07-25T09:31:56.250Z,29.40
2018-07-25T09:34:24.559Z,29.20
2018-07-25T09:36:53.314Z,29.20
2018-07-25T09:39:21.700Z,29.20
2018-07-25T09:41:49.928Z,29.40
2018-07-25T09:44:18.173Z,29.50
2018-07-25T09:49:14.376Z,29.80
2018-07-25T09:51:42.512Z,29.90
2018-07-25T09:54:10.686Z,29.90
2018-07-25T09:59:06.921Z,30.00
2018-07-25T10:01:35.801Z,30.10
2018-07-25T10:04:03.948Z,30.10
2018-07-25T10:06:32.197Z,30.20
2018-07-25T10:09:00.317Z,30.10
2018-07-25T10:11:28.547Z,30.10
2018-07-25T10:13:56.626Z,30.10
2018-07-25T10:16:24.777Z,30.10
2018-07-25T10:18:53.831Z,30.30
2018-07-25T10:21:22.543Z,30.30
2018-07-25T10:23:50.619Z,30.30
2018-07-25T10:26:20.194Z,30.50
2018-07-25T10:28:48.562Z,30.60
2018-07-25T10:33:45.239Z,30.80
2018-07-25T10:36:13.593Z,31.00
2018-07-25T10:38:43.916Z,31.00
2018-07-25T10:43:40.219Z,31.10
2018-07-25T10:46:08.463Z,31.00
2018-07-25T10:48:36.559Z,31.00
2018-07-25T10:51:04.690Z,30.80
2018-07-25T10:53:32.884Z,30.50
2018-07-25T10:56:02.166Z,30.20
2018-07-25T10:58:30.182Z,30.10
2018-07-25T11:03:27.114Z,30.30
2018-07-25T11:05:55.436Z,30.40
2018-07-25T11:08:23.547Z,30.60
2018-07-25T11:10:51.823Z,30.70
2018-07-25T11:13:20.232Z,30.80
2018-07-25T11:15:48.386Z,30.80
2018-07-25T11:18:17.225Z,30.90
2018-07-25T11:20:45.416Z,30.90
2018-07-25T11:25:41.898Z,31.10
2018-07-25T11:28:11.014Z,31.10
2018-07-25T11:30:39.187Z,30.90
2018-07-25T11:33:07.322Z,30.70
2018-07-25T11:35:35.498Z,30.40
2018-07-25T11:38:03.791Z,30.40
2018-07-25T11:40:31.914Z,30.50
2018-07-25T11:43:00.129Z,30.60
2018-07-25T11:45:28.468Z,30.80
2018-07-25T11:47:56.610Z,30.80
2018-07-25T11:50:24.844Z,30.90
2018-07-25T11:52:53.051Z,30.90
2018-07-25T11:55:21.269Z,30.90
2018-07-25T11:57:49.332Z,31.00
2018-07-25T12:02:45.614Z,31.00
2018-07-25T12:05:14.549Z,31.10
2018-07-25T12:07:42.814Z,31.10
2018-07-25T12:10:11.612Z,31.00
2018-07-25T12:12:40.667Z,31.00
2018-07-25T12:15:09.615Z,31.00
2018-07-25T12:17:38.200Z,30.90
2018-07-25T12:20:06.609Z,30.90
2018-07-25T12:25:02.814Z,31.00
2018-07-25T12:27:31.524Z,31.10
2018-07-25T12:29:59.783Z,31.10
2018-07-25T12:32:27.937Z,31.00
2018-07-25T12:34:56.078Z,31.00
2018-07-25T12:37:24.486Z,31.00
2018-07-25T12:42:22.718Z,31.00
2018-07-25T12:44:50.856Z,31.00
2018-07-25T12:47:19.080Z,31.10
2018-07-25T12:49:47.249Z,31.20
2018-07-25T12:52:15.438Z,31.20
2018-07-25T12:54:43.660Z,31.20
2018-07-25T12:59:40.623Z,31.30
2018-07-25T13:02:10.065Z,31.30
2018-07-25T13:04:38.202Z,31.30
2018-07-25T13:07:06.479Z,31.30
2018-07-25T13:09:34.688Z,31.30
2018-07-25T13:12:02.951Z,31.20
2018-07-25T13:14:31.047Z,31.30
2018-07-25T13:16:59.365Z,31.20
2018-07-25T13:19:27.496Z,31.30
2018-07-25T13:21:55.777Z,31.50
2018-07-25T13:24:24.647Z,31.50
2018-07-25T13:26:52.825Z,31.50
2018-07-25T13:29:21.095Z,31.50
2018-07-25T13:31:49.372Z,31.50
2018-07-25T13:34:17.677Z,31.40
2018-07-25T13:36:45.821Z,31.40
2018-07-25T13:39:13.979Z,31.40
2018-07-25T13:41:42.121Z,31.40
2018-07-25T13:44:10.315Z,31.50
2018-07-25T13:49:06.505Z,31.50
2018-07-25T13:51:34.933Z,31.60
2018-07-25T13:54:03.195Z,31.60
2018-07-25T13:56:31.367Z,31.60
2018-07-25T13:58:59.515Z,31.60
2018-07-25T14:01:27.689Z,31.60
2018-07-25T14:03:55.884Z,31.70
2018-07-25T14:06:24.104Z,31.70
2018-07-25T14:08:52.257Z,31.60
2018-07-25T14:11:20.515Z,31.60
2018-07-25T14:13:48.661Z,31.50
2018-07-25T14:18:44.749Z,31.50
2018-07-25T14:21:12.911Z,31.50
2018-07-25T14:23:41.162Z,31.50
2018-07-25T14:26:09.293Z,31.50
2018-07-25T14:28:37.548Z,31.60
2018-07-25T14:31:05.960Z,31.50
2018-07-25T14:33:34.341Z,31.50
2018-07-25T14:36:02.782Z,31.30
2018-07-25T14:38:31.038Z,31.10
2018-07-25T14:40:59.186Z,31.00
2018-07-25T14:43:27.300Z,31.00
2018-07-25T14:45:55.368Z,31.00
2018-07-25T14:48:23.639Z,30.90
2018-07-25T14:50:52.530Z,30.70
2018-07-25T14:53:20.656Z,30.70
2018-07-25T14:55:48.784Z,30.80
2018-07-25T14:58:17.120Z,31.00
2018-07-25T15:00:45.459Z,31.20
2018-07-25T15:03:14.422Z,31.30
2018-07-25T15:05:42.694Z,31.50
2018-07-25T15:08:11.044Z,31.60
2018-07-25T15:10:39.214Z,31.60
2018-07-25T15:13:07.472Z,31.60
2018-07-25T15:15:36.288Z,31.60
2018-07-25T15:20:32.704Z,31.40
2018-07-25T15:23:00.890Z,31.30
2018-07-25T15:25:29.276Z,31.30
2018-07-25T15:27:57.618Z,31.30
2018-07-25T15:30:25.923Z,31.30
2018-07-25T15:32:54.076Z,31.40
2018-07-25T15:35:22.400Z,31.30
2018-07-25T15:37:50.516Z,31.40
2018-07-25T15:40:18.676Z,31.40
2018-07-25T15:42:46.912Z,31.50
2018-07-25T15:45:15.160Z,31.50
2018-07-25T15:47:43.389Z,31.50
2018-07-25T15:50:11.577Z,31.40
2018-07-25T15:52:39.816Z,31.30
2018-07-25T15:55:08.997Z,31.20
2018-07-25T15:57:37.117Z,31.20
2018-07-25T16:00:07.052Z,31.20
2018-07-25T16:02:35.446Z,31.20
2018-07-25T16:05:03.614Z,31.20
2018-07-25T16:07:31.876Z,31.10
2018-07-25T16:10:00.135Z,31.10
2018-07-25T16:12:28.308Z,31.10
2018-07-25T16:14:56.492Z,31.10
2018-07-25T16:17:24.698Z,31.00
2018-07-25T16:19:53.019Z,31.00
2018-07-25T16:22:21.291Z,31.00
2018-07-25T16:24:49.522Z,31.00
2018-07-25T16:27:17.803Z,31.00
2018-07-25T16:29:46.065Z,31.00
2018-07-25T16:34:51.014Z,31.00
2018-07-25T16:39:47.242Z,31.00
2018-07-25T16:42:15.435Z,30.90
2018-07-25T16:44:43.672Z,30.80
2018-07-25T16:47:11.883Z,30.80
2018-07-25T16:49:40.180Z,30.70
2018-07-25T16:54:36.512Z,30.70
2018-07-25T16:57:05.231Z,30.60
2018-07-25T17:02:01.314Z,30.50
2018-07-25T17:04:29.502Z,30.50
2018-07-25T17:06:57.598Z,30.50
2018-07-25T17:09:26.731Z,30.50
2018-07-25T17:14:23.509Z,30.40
2018-07-25T17:19:20.139Z,30.30
2018-07-25T17:21:49.245Z,30.30
2018-07-25T17:24:17.379Z,30.30
2018-07-25T17:26:45.741Z,30.20
2018-07-25T17:29:14.377Z,30.20
2018-07-25T17:31:42.569Z,30.20
2018-07-25T17:34:10.722Z,30.20
2018-07-25T17:36:38.881Z,30.10
2018-07-25T17:39:08.930Z,30.10
2018-07-25T17:41:37.119Z,30.10
2018-07-25T17:44:05.295Z,30.10
2018-07-25T17:46:33.445Z,30.00
2018-07-25T17:49:01.632Z,30.00
2018-07-25T17:51:30.565Z,30.00
2018-07-25T17:53:58.732Z,29.90
2018-07-25T17:56:26.990Z,29.90
2018-07-25T17:58:55.171Z,29.90
2018-07-25T18:01:23.363Z,29.90
2018-07-25T18:03:51.786Z,29.90
2018-07-25T18:06:19.997Z,29.90
2018-07-25T18:08:48.231Z,29.80
2018-07-25T18:11:16.687Z,29.80
2018-07-25T18:13:50.559Z,29.70
2018-07-25T18:16:18.773Z,29.60
2018-07-25T18:18:46.933Z,29.50
2018-07-25T18:21:15.161Z,29.50
2018-07-25T18:28:39.797Z,29.40
2018-07-25T18:31:08.111Z,29.30
2018-07-25T18:33:36.319Z,29.20
2018-07-25T18:36:04.504Z,29.20
2018-07-25T18:38:32.706Z,29.10
2018-07-25T18:41:00.883Z,29.10
2018-07-25T18:43:29.092Z,29.00
2018-07-25T18:45:57.256Z,28.90
2018-07-25T18:48:25.592Z,28.90
2018-07-25T18:50:53.775Z,28.90
2018-07-25T18:53:21.944Z,28.90
2018-07-25T18:55:50.125Z,28.90
2018-07-25T18:58:18.432Z,28.90
2018-07-25T19:00:46.688Z,28.80
2018-07-25T19:03:15.466Z,28.80
2018-07-25T19:05:43.705Z,28.70
2018-07-25T19:08:11.953Z,28.60
2018-07-25T19:10:40.235Z,28.60
2018-07-25T19:14:15.752Z,28.60
2018-07-25T19:16:43.912Z,28.50
2018-07-25T19:19:12.059Z,28.40
2018-07-25T19:21:40.305Z,28.40
2018-07-25T19:24:08.542Z,28.30
2018-07-25T19:26:36.832Z,28.30
2018-07-25T19:29:05.246Z,28.20
2018-07-25T19:31:33.428Z,28.10
2018-07-25T19:34:01.566Z,28.00
2018-07-25T19:36:30.285Z,27.90
2018-07-25T19:38:58.510Z,27.90
2018-07-25T19:41:26.646Z,27.80
2018-07-25T19:43:54.852Z,27.80
2018-07-25T19:46:23.014Z,27.70
2018-07-25T19:48:51.171Z,27.60
2018-07-25T19:51:20.194Z,27.60
2018-07-25T19:53:48.543Z,27.50
2018-07-25T19:56:16.737Z,27.50
2018-07-25T19:58:44.872Z,27.50
2018-07-25T20:03:42.257Z,27.40
2018-07-25T20:06:10.427Z,27.40
2018-07-25T20:08:38.617Z,27.40
2018-07-25T20:11:07.384Z,27.40
2018-07-25T20:13:39.889Z,27.40
2018-07-25T20:16:08.047Z,27.40
2018-07-25T20:21:04.321Z,27.40
2018-07-25T20:23:32.482Z,27.40
2018-07-25T20:26:00.608Z,27.40
2018-07-25T20:28:28.759Z,27.40
2018-07-25T20:30:57.839Z,27.40
2018-07-25T20:33:25.923Z,27.40
2018-07-25T20:35:54.120Z,27.30
2018-07-25T20:38:22.236Z,27.20
2018-07-25T20:40:50.353Z,27.20
2018-07-25T20:48:14.597Z,27.00
2018-07-25T20:50:42.739Z,26.90
2018-07-25T20:53:10.976Z,26.90
2018-07-25T20:55:39.833Z,26.90
2018-07-25T20:58:07.962Z,26.80
2018-07-25T21:00:36.872Z,26.70
2018-07-25T21:03:06.548Z,26.70
2018-07-25T21:05:35.050Z,26.60
2018-07-25T21:08:03.507Z,26.50
2018-07-25T21:10:31.830Z,26.50
2018-07-25T21:12:59.921Z,26.50
2018-07-25T21:15:28.104Z,26.40
2018-07-25T21:17:56.258Z,26.30
2018-07-25T21:20:24.495Z,26.30
2018-07-25T21:22:52.673Z,26.20
2018-07-25T21:25:20.784Z,26.10
2018-07-25T21:27:49.813Z,26.10
2018-07-25T21:30:17.957Z,26.00
2018-07-25T21:32:46.117Z,26.00
2018-07-25T21:35:14.261Z,26.00
2018-07-25T21:37:42.369Z,25.90
2018-07-25T21:40:10.479Z,25.90
2018-07-25T21:42:38.650Z,25.80
2018-07-25T21:45:06.883Z,25.80
2018-07-25T21:47:35.043Z,25.80
2018-07-25T21:50:03.223Z,25.70
2018-07-25T21:52:31.348Z,25.60
2018-07-25T21:54:59.535Z,25.60
2018-07-25T21:57:27.808Z,25.50
2018-07-25T21:59:56.113Z,25.50
2018-07-25T22:02:24.261Z,25.40
2018-07-25T22:04:52.401Z,25.40
2018-07-25T22:07:20.537Z,25.30
2018-07-25T22:09:48.710Z,25.20
2018-07-25T22:12:16.850Z,25.20
2018-07-25T22:14:44.946Z,25.10
2018-07-25T22:17:13.100Z,25.10
2018-07-25T22:19:41.408Z,25.00
2018-07-25T22:22:09.556Z,25.00
2018-07-25T22:24:37.723Z,25.00
2018-07-25T22:27:05.897Z,24.90
2018-07-25T22:32:03.215Z,24.90
2018-07-25T22:34:32.863Z,24.80
2018-07-25T22:39:29.020Z,24.70
2018-07-25T22:41:57.216Z,24.70
2018-07-25T22:46:53.352Z,24.60
2018-07-25T22:49:21.535Z,24.50
2018-07-25T22:51:49.732Z,24.50
2018-07-25T22:56:46.505Z,24.40
2018-07-25T22:59:14.788Z,24.30
2018-07-25T23:01:43.050Z,24.30
2018-07-25T23:04:11.852Z,24.20
2018-07-25T23:09:09.672Z,24.20
2018-07-25T23:11:37.992Z,24.10
2018-07-25T23:14:06.169Z,24.10
2018-07-25T23:16:34.439Z,24.10
2018-07-25T23:19:02.636Z,24.10
2018-07-25T23:21:30.751Z,24.00
2018-07-25T23:23:58.876Z,24.00
2018-07-25T23:26:27.094Z,23.90
2018-07-25T23:31:24.000Z,23.90
2018-07-25T23:33:52.162Z,23.80
2018-07-25T23:36:20.300Z,23.80
2018-07-25T23:38:48.444Z,23.70
2018-07-25T23:41:16.681Z,23.70
2018-07-25T23:43:44.830Z,23.60
2018-07-25T23:46:12.938Z,23.60
2018-07-25T23:51:08.979Z,23.50
2018-07-25T23:56:05.082Z,23.40
2018-07-25T23:58:33.200Z,23.40
